sensor_id;sensor_type;location;lat;lon;timestamp;P1;durP1;ratioP1;P2;durP2;ratioP2
10461;SDS011;5278;42.656;23.374;2024-01-15T00:00:20;30.77;;;17.80;;
10461;SDS011;5278;42.656;23.374;2024-01-15T00:02:48;27.77;;;17.13;;
10461;SDS011;5278;42.656;23.374;2024-01-15T00:05:15;26.03;;;16.97;;
10461;SDS011;5278;42.656;23.374;2024-01-15T00:07:41;36.13;;;18.07;;
10461;SDS011;5278;42.656;23.374;2024-01-15T00:10:08;31.33;;;17.63;;
10461;SDS011;5278;42.656;23.374;2024-01-15T00:12:36;29.13;;;17.20;;
10461;SDS011;5278;42.656;23.374;2024-01-15T00:15:03;27.53;;;17.20;;
10461;SDS011;5278;42.656;23.374;2024-01-15T00:17:31;32.47;;;18.23;;
10461;SDS011;5278;42.656;23.374;2024-01-15T00:20:00;32.50;;;18.10;;
10461;SDS011;5278;42.656;23.374;2024-01-15T00:22:28;34.30;;;19.97;;
10461;SDS011;5278;42.656;23.374;2024-01-15T00:24:55;31.77;;;18.43;;
10461;SDS011;5278;42.656;23.374;2024-01-15T00:27:22;37.13;;;17.90;;
10461;SDS011;5278;42.656;23.374;2024-01-15T00:29:49;30.97;;;18.07;;
10461;SDS011;5278;42.656;23.374;2024-01-15T00:32:17;35.47;;;17.67;;
10461;SDS011;5278;42.656;23.374;2024-01-15T00:34:43;25.67;;;17.97;;
10461;SDS011;5278;42.656;23.374;2024-01-15T00:37:12;36.50;;;20.90;;
10461;SDS011;5278;42.656;23.374;2024-01-15T00:39:39;33.93;;;19.73;;
10461;SDS011;5278;42.656;23.374;2024-01-15T00:42:05;33.57;;;20.40;;
10461;SDS011;5278;42.656;23.374;2024-01-15T00:44:32;37.17;;;20.97;;
10461;SDS011;5278;42.656;23.374;2024-01-15T00:46:59;39.70;;;22.53;;
10461;SDS011;5278;42.656;23.374;2024-01-15T00:49:27;35.43;;;22.07;;
10461;SDS011;5278;42.656;23.374;2024-01-15T00:51:53;39.07;;;22.03;;
10461;SDS011;5278;42.656;23.374;2024-01-15T00:54:22;38.57;;;22.20;;
10461;SDS011;5278;42.656;23.374;2024-01-15T00:56:48;39.03;;;21.07;;
10461;SDS011;5278;42.656;23.374;2024-01-15T00:59:15;43.53;;;22.67;;
10461;SDS011;5278;42.656;23.374;2024-01-15T01:01:42;37.67;;;23.47;;
10461;SDS011;5278;42.656;23.374;2024-01-15T01:04:11;37.37;;;22.00;;
10461;SDS011;5278;42.656;23.374;2024-01-15T01:06:38;35.47;;;21.90;;
10461;SDS011;5278;42.656;23.374;2024-01-15T01:09:08;34.10;;;20.17;;
10461;SDS011;5278;42.656;23.374;2024-01-15T01:11:36;38.37;;;21.03;;
10461;SDS011;5278;42.656;23.374;2024-01-15T01:14:02;36.87;;;20.67;;
10461;SDS011;5278;42.656;23.374;2024-01-15T01:16:29;37.23;;;19.07;;
10461;SDS011;5278;42.656;23.374;2024-01-15T01:19:03;38.63;;;19.33;;
10461;SDS011;5278;42.656;23.374;2024-01-15T01:21:31;28.90;;;18.20;;
10461;SDS011;5278;42.656;23.374;2024-01-15T01:23:58;30.47;;;18.03;;
10461;SDS011;5278;42.656;23.374;2024-01-15T01:26:25;30.27;;;17.97;;
10461;SDS011;5278;42.656;23.374;2024-01-15T01:28:53;30.83;;;17.67;;
10461;SDS011;5278;42.656;23.374;2024-01-15T01:31:20;27.30;;;16.27;;
10461;SDS011;5278;42.656;23.374;2024-01-15T01:33:47;30.20;;;18.27;;
10461;SDS011;5278;42.656;23.374;2024-01-15T01:36:14;27.73;;;17.57;;
10461;SDS011;5278;42.656;23.374;2024-01-15T01:38:41;30.43;;;18.30;;
10461;SDS011;5278;42.656;23.374;2024-01-15T01:41:08;33.60;;;17.50;;
10461;SDS011;5278;42.656;23.374;2024-01-15T01:43:36;24.80;;;16.63;;
10461;SDS011;5278;42.656;23.374;2024-01-15T01:46:05;29.13;;;17.20;;
10461;SDS011;5278;42.656;23.374;2024-01-15T01:48:32;34.53;;;19.50;;
10461;SDS011;5278;42.656;23.374;2024-01-15T01:51:00;33.70;;;18.60;;
10461;SDS011;5278;42.656;23.374;2024-01-15T01:53:29;36.47;;;20.47;;
10461;SDS011;5278;42.656;23.374;2024-01-15T01:55:58;36.53;;;20.30;;
10461;SDS011;5278;42.656;23.374;2024-01-15T01:58:26;39.07;;;20.47;;
10461;SDS011;5278;42.656;23.374;2024-01-15T02:00:55;37.57;;;19.77;;
10461;SDS011;5278;42.656;23.374;2024-01-15T02:03:25;33.27;;;20.33;;
10461;SDS011;5278;42.656;23.374;2024-01-15T02:05:52;36.47;;;20.27;;
10461;SDS011;5278;42.656;23.374;2024-01-15T02:08:20;36.07;;;20.37;;
10461;SDS011;5278;42.656;23.374;2024-01-15T02:10:49;37.53;;;22.83;;
10461;SDS011;5278;42.656;23.374;2024-01-15T02:13:16;42.53;;;23.50;;
10461;SDS011;5278;42.656;23.374;2024-01-15T02:15:44;39.90;;;22.17;;
10461;SDS011;5278;42.656;23.374;2024-01-15T02:18:11;31.43;;;19.10;;
10461;SDS011;5278;42.656;23.374;2024-01-15T02:20:39;39.77;;;21.53;;
10461;SDS011;5278;42.656;23.374;2024-01-15T02:23:10;31.30;;;17.60;;
10461;SDS011;5278;42.656;23.374;2024-01-15T02:25:39;31.13;;;17.13;;
10461;SDS011;5278;42.656;23.374;2024-01-15T02:28:07;28.40;;;15.53;;
10461;SDS011;5278;42.656;23.374;2024-01-15T02:30:36;29.63;;;15.77;;
10461;SDS011;5278;42.656;23.374;2024-01-15T02:33:05;26.43;;;15.33;;
10461;SDS011;5278;42.656;23.374;2024-01-15T02:35:32;25.10;;;14.97;;
10461;SDS011;5278;42.656;23.374;2024-01-15T02:37:59;22.97;;;12.63;;
10461;SDS011;5278;42.656;23.374;2024-01-15T02:40:27;21.10;;;13.40;;
10461;SDS011;5278;42.656;23.374;2024-01-15T02:42:54;19.70;;;12.07;;
10461;SDS011;5278;42.656;23.374;2024-01-15T02:45:38;17.27;;;10.97;;
10461;SDS011;5278;42.656;23.374;2024-01-15T02:48:05;19.17;;;12.03;;
10461;SDS011;5278;42.656;23.374;2024-01-15T02:50:32;22.30;;;12.60;;
10461;SDS011;5278;42.656;23.374;2024-01-15T02:52:59;22.27;;;12.07;;
10461;SDS011;5278;42.656;23.374;2024-01-15T02:55:27;24.23;;;13.47;;
10461;SDS011;5278;42.656;23.374;2024-01-15T02:57:55;22.70;;;13.53;;
10461;SDS011;5278;42.656;23.374;2024-01-15T03:00:24;23.93;;;13.97;;
10461;SDS011;5278;42.656;23.374;2024-01-15T03:02:51;28.10;;;13.33;;
10461;SDS011;5278;42.656;23.374;2024-01-15T03:05:18;18.93;;;12.97;;
10461;SDS011;5278;42.656;23.374;2024-01-15T03:07:45;23.63;;;13.93;;
10461;SDS011;5278;42.656;23.374;2024-01-15T03:10:12;23.53;;;15.37;;
10461;SDS011;5278;42.656;23.374;2024-01-15T03:12:40;28.33;;;17.37;;
10461;SDS011;5278;42.656;23.374;2024-01-15T03:15:07;31.70;;;17.80;;
10461;SDS011;5278;42.656;23.374;2024-01-15T03:17:34;30.23;;;17.70;;
10461;SDS011;5278;42.656;23.374;2024-01-15T03:20:00;31.97;;;18.87;;
10461;SDS011;5278;42.656;23.374;2024-01-15T03:22:28;29.63;;;16.87;;
10461;SDS011;5278;42.656;23.374;2024-01-15T03:24:55;30.70;;;16.87;;
10461;SDS011;5278;42.656;23.374;2024-01-15T03:27:21;29.30;;;17.83;;
10461;SDS011;5278;42.656;23.374;2024-01-15T03:29:50;33.47;;;19.40;;
10461;SDS011;5278;42.656;23.374;2024-01-15T03:32:17;30.90;;;17.60;;
10461;SDS011;5278;42.656;23.374;2024-01-15T03:34:44;29.20;;;18.20;;
10461;SDS011;5278;42.656;23.374;2024-01-15T03:37:13;37.07;;;19.93;;
10461;SDS011;5278;42.656;23.374;2024-01-15T03:39:40;32.93;;;18.30;;
10461;SDS011;5278;42.656;23.374;2024-01-15T03:42:07;36.20;;;19.63;;
10461;SDS011;5278;42.656;23.374;2024-01-15T03:44:34;37.53;;;20.63;;
10461;SDS011;5278;42.656;23.374;2024-01-15T03:47:03;31.03;;;18.33;;
10461;SDS011;5278;42.656;23.374;2024-01-15T03:49:30;30.33;;;18.93;;
10461;SDS011;5278;42.656;23.374;2024-01-15T03:51:57;39.37;;;20.83;;
10461;SDS011;5278;42.656;23.374;2024-01-15T03:54:24;32.13;;;19.07;;
10461;SDS011;5278;42.656;23.374;2024-01-15T03:56:52;36.43;;;19.43;;
10461;SDS011;5278;42.656;23.374;2024-01-15T03:59:19;35.23;;;20.80;;
10461;SDS011;5278;42.656;23.374;2024-01-15T04:01:48;41.37;;;21.23;;
10461;SDS011;5278;42.656;23.374;2024-01-15T04:04:17;34.90;;;20.00;;
10461;SDS011;5278;42.656;23.374;2024-01-15T04:06:44;29.67;;;18.80;;
10461;SDS011;5278;42.656;23.374;2024-01-15T04:09:11;27.67;;;17.47;;
10461;SDS011;5278;42.656;23.374;2024-01-15T04:11:40;30.30;;;17.00;;
10461;SDS011;5278;42.656;23.374;2024-01-15T04:14:06;28.13;;;17.03;;
10461;SDS011;5278;42.656;23.374;2024-01-15T04:16:33;32.23;;;17.07;;
10461;SDS011;5278;42.656;23.374;2024-01-15T04:19:00;30.40;;;18.10;;
10461;SDS011;5278;42.656;23.374;2024-01-15T04:21:28;40.83;;;21.77;;
10461;SDS011;5278;42.656;23.374;2024-01-15T04:23:55;46.10;;;23.97;;
10461;SDS011;5278;42.656;23.374;2024-01-15T04:26:23;42.50;;;24.00;;
10461;SDS011;5278;42.656;23.374;2024-01-15T04:28:49;38.90;;;21.83;;
10461;SDS011;5278;42.656;23.374;2024-01-15T04:31:23;36.10;;;20.37;;
10461;SDS011;5278;42.656;23.374;2024-01-15T04:33:52;38.50;;;20.93;;
10461;SDS011;5278;42.656;23.374;2024-01-15T04:36:20;35.77;;;20.00;;
10461;SDS011;5278;42.656;23.374;2024-01-15T04:38:49;30.67;;;17.40;;
10461;SDS011;5278;42.656;23.374;2024-01-15T04:41:16;28.23;;;15.80;;
10461;SDS011;5278;42.656;23.374;2024-01-15T04:43:43;26.77;;;15.30;;
10461;SDS011;5278;42.656;23.374;2024-01-15T04:46:10;24.77;;;15.20;;
10461;SDS011;5278;42.656;23.374;2024-01-15T04:48:37;31.90;;;17.20;;
10461;SDS011;5278;42.656;23.374;2024-01-15T04:51:04;24.83;;;14.87;;
10461;SDS011;5278;42.656;23.374;2024-01-15T04:53:31;26.60;;;16.00;;
10461;SDS011;5278;42.656;23.374;2024-01-15T04:56:00;26.83;;;15.47;;
10461;SDS011;5278;42.656;23.374;2024-01-15T04:58:27;26.80;;;15.27;;
10461;SDS011;5278;42.656;23.374;2024-01-15T05:00:54;32.37;;;16.53;;
10461;SDS011;5278;42.656;23.374;2024-01-15T05:03:21;28.57;;;17.00;;
10461;SDS011;5278;42.656;23.374;2024-01-15T05:05:48;27.20;;;16.17;;
10461;SDS011;5278;42.656;23.374;2024-01-15T05:08:14;23.83;;;15.90;;
10461;SDS011;5278;42.656;23.374;2024-01-15T05:10:41;24.83;;;14.33;;
10461;SDS011;5278;42.656;23.374;2024-01-15T05:13:09;26.10;;;14.80;;
10461;SDS011;5278;42.656;23.374;2024-01-15T05:15:36;27.20;;;15.63;;
10461;SDS011;5278;42.656;23.374;2024-01-15T05:18:03;25.27;;;15.07;;
10461;SDS011;5278;42.656;23.374;2024-01-15T05:20:30;27.00;;;14.27;;
10461;SDS011;5278;42.656;23.374;2024-01-15T05:22:57;26.07;;;14.87;;
10461;SDS011;5278;42.656;23.374;2024-01-15T05:25:24;32.37;;;16.27;;
10461;SDS011;5278;42.656;23.374;2024-01-15T05:27:51;29.47;;;15.57;;
10461;SDS011;5278;42.656;23.374;2024-01-15T05:30:20;30.70;;;18.13;;
10461;SDS011;5278;42.656;23.374;2024-01-15T05:32:46;29.77;;;17.77;;
10461;SDS011;5278;42.656;23.374;2024-01-15T05:35:13;36.90;;;19.77;;
10461;SDS011;5278;42.656;23.374;2024-01-15T05:37:44;31.33;;;19.70;;
10461;SDS011;5278;42.656;23.374;2024-01-15T05:40:12;33.17;;;20.03;;
10461;SDS011;5278;42.656;23.374;2024-01-15T05:42:41;31.43;;;19.43;;
10461;SDS011;5278;42.656;23.374;2024-01-15T05:45:08;34.57;;;19.70;;
10461;SDS011;5278;42.656;23.374;2024-01-15T05:47:37;33.93;;;19.17;;
10461;SDS011;5278;42.656;23.374;2024-01-15T05:50:04;34.40;;;19.80;;
10461;SDS011;5278;42.656;23.374;2024-01-15T05:52:32;40.83;;;21.03;;
10461;SDS011;5278;42.656;23.374;2024-01-15T05:54:59;32.57;;;20.03;;
10461;SDS011;5278;42.656;23.374;2024-01-15T05:57:26;39.53;;;20.77;;
10461;SDS011;5278;42.656;23.374;2024-01-15T05:59:53;37.03;;;20.50;;
10461;SDS011;5278;42.656;23.374;2024-01-15T06:02:20;38.53;;;21.10;;
10461;SDS011;5278;42.656;23.374;2024-01-15T06:04:48;36.80;;;21.67;;
10461;SDS011;5278;42.656;23.374;2024-01-15T06:07:15;37.23;;;20.90;;
10461;SDS011;5278;42.656;23.374;2024-01-15T06:09:42;38.83;;;21.27;;
10461;SDS011;5278;42.656;23.374;2024-01-15T06:12:09;36.90;;;21.43;;
10461;SDS011;5278;42.656;23.374;2024-01-15T06:14:36;39.90;;;21.80;;
10461;SDS011;5278;42.656;23.374;2024-01-15T06:17:02;34.73;;;21.47;;
10461;SDS011;5278;42.656;23.374;2024-01-15T06:19:29;43.60;;;24.23;;
10461;SDS011;5278;42.656;23.374;2024-01-15T06:21:57;36.77;;;21.80;;
10461;SDS011;5278;42.656;23.374;2024-01-15T06:24:24;35.57;;;21.53;;
10461;SDS011;5278;42.656;23.374;2024-01-15T06:26:51;35.57;;;21.37;;
10461;SDS011;5278;42.656;23.374;2024-01-15T06:29:18;35.20;;;23.03;;
10461;SDS011;5278;42.656;23.374;2024-01-15T06:31:45;34.47;;;22.17;;
10461;SDS011;5278;42.656;23.374;2024-01-15T06:34:13;40.17;;;23.13;;
10461;SDS011;5278;42.656;23.374;2024-01-15T06:36:41;34.57;;;21.90;;
10461;SDS011;5278;42.656;23.374;2024-01-15T06:39:10;41.63;;;22.87;;
10461;SDS011;5278;42.656;23.374;2024-01-15T06:41:37;39.77;;;23.33;;
10461;SDS011;5278;42.656;23.374;2024-01-15T06:44:09;35.57;;;22.83;;
10461;SDS011;5278;42.656;23.374;2024-01-15T06:46:41;49.50;;;30.37;;
10461;SDS011;5278;42.656;23.374;2024-01-15T06:49:08;37.83;;;23.97;;
10461;SDS011;5278;42.656;23.374;2024-01-15T06:51:35;38.83;;;23.10;;
10461;SDS011;5278;42.656;23.374;2024-01-15T06:54:02;40.00;;;23.67;;
10461;SDS011;5278;42.656;23.374;2024-01-15T06:56:30;41.77;;;26.00;;
10461;SDS011;5278;42.656;23.374;2024-01-15T06:58:57;40.13;;;24.27;;
10461;SDS011;5278;42.656;23.374;2024-01-15T07:01:24;39.87;;;24.60;;
10461;SDS011;5278;42.656;23.374;2024-01-15T07:03:51;40.40;;;24.97;;
10461;SDS011;5278;42.656;23.374;2024-01-15T07:06:18;44.83;;;26.87;;
10461;SDS011;5278;42.656;23.374;2024-01-15T07:08:45;45.87;;;26.53;;
10461;SDS011;5278;42.656;23.374;2024-01-15T07:11:12;42.17;;;26.67;;
10461;SDS011;5278;42.656;23.374;2024-01-15T07:13:41;48.30;;;28.10;;
10461;SDS011;5278;42.656;23.374;2024-01-15T07:16:08;46.70;;;28.67;;
10461;SDS011;5278;42.656;23.374;2024-01-15T07:18:34;45.07;;;27.83;;
10461;SDS011;5278;42.656;23.374;2024-01-15T07:21:02;46.93;;;29.33;;
10461;SDS011;5278;42.656;23.374;2024-01-15T07:23:30;43.67;;;27.60;;
10461;SDS011;5278;42.656;23.374;2024-01-15T07:25:58;47.80;;;27.17;;
10461;SDS011;5278;42.656;23.374;2024-01-15T07:28:24;42.63;;;26.70;;
10461;SDS011;5278;42.656;23.374;2024-01-15T07:30:53;47.37;;;27.10;;
10461;SDS011;5278;42.656;23.374;2024-01-15T07:33:20;44.57;;;27.10;;
10461;SDS011;5278;42.656;23.374;2024-01-15T07:35:48;45.33;;;26.53;;
10461;SDS011;5278;42.656;23.374;2024-01-15T07:38:15;48.80;;;27.37;;
10461;SDS011;5278;42.656;23.374;2024-01-15T07:40:42;40.70;;;24.67;;
10461;SDS011;5278;42.656;23.374;2024-01-15T07:43:09;40.67;;;25.40;;
10461;SDS011;5278;42.656;23.374;2024-01-15T07:45:36;46.67;;;28.00;;
10461;SDS011;5278;42.656;23.374;2024-01-15T07:48:05;50.57;;;28.23;;
10461;SDS011;5278;42.656;23.374;2024-01-15T07:50:35;40.97;;;23.67;;
10461;SDS011;5278;42.656;23.374;2024-01-15T07:53:02;35.97;;;21.80;;
10461;SDS011;5278;42.656;23.374;2024-01-15T07:55:29;35.17;;;23.67;;
10461;SDS011;5278;42.656;23.374;2024-01-15T07:57:56;39.70;;;23.80;;
10461;SDS011;5278;42.656;23.374;2024-01-15T08:00:24;40.53;;;22.03;;
10461;SDS011;5278;42.656;23.374;2024-01-15T08:02:52;36.07;;;21.77;;
10461;SDS011;5278;42.656;23.374;2024-01-15T08:05:20;35.43;;;20.37;;
10461;SDS011;5278;42.656;23.374;2024-01-15T08:07:47;36.53;;;20.17;;
10461;SDS011;5278;42.656;23.374;2024-01-15T08:10:14;27.67;;;17.00;;
10461;SDS011;5278;42.656;23.374;2024-01-15T08:12:41;29.63;;;17.10;;
10461;SDS011;5278;42.656;23.374;2024-01-15T08:15:07;27.07;;;15.03;;
10461;SDS011;5278;42.656;23.374;2024-01-15T08:17:34;36.73;;;18.27;;
10461;SDS011;5278;42.656;23.374;2024-01-15T08:20:02;26.23;;;13.63;;
10461;SDS011;5278;42.656;23.374;2024-01-15T08:22:31;24.97;;;15.17;;
10461;SDS011;5278;42.656;23.374;2024-01-15T08:24:58;18.67;;;12.13;;
10461;SDS011;5278;42.656;23.374;2024-01-15T08:27:25;20.00;;;12.53;;
10461;SDS011;5278;42.656;23.374;2024-01-15T08:29:51;25.83;;;13.60;;
10461;SDS011;5278;42.656;23.374;2024-01-15T08:32:18;23.07;;;14.20;;
10461;SDS011;5278;42.656;23.374;2024-01-15T08:34:45;26.97;;;16.43;;
10461;SDS011;5278;42.656;23.374;2024-01-15T08:37:12;28.37;;;18.33;;
10461;SDS011;5278;42.656;23.374;2024-01-15T08:39:41;31.03;;;19.10;;
10461;SDS011;5278;42.656;23.374;2024-01-15T08:42:07;25.60;;;18.07;;
10461;SDS011;5278;42.656;23.374;2024-01-15T08:44:36;31.90;;;22.10;;
10461;SDS011;5278;42.656;23.374;2024-01-15T08:47:04;42.57;;;25.37;;
10461;SDS011;5278;42.656;23.374;2024-01-15T08:49:31;39.40;;;27.07;;
10461;SDS011;5278;42.656;23.374;2024-01-15T08:51:58;40.20;;;27.60;;
10461;SDS011;5278;42.656;23.374;2024-01-15T08:54:25;34.97;;;25.83;;
10461;SDS011;5278;42.656;23.374;2024-01-15T08:56:53;37.83;;;26.90;;
10461;SDS011;5278;42.656;23.374;2024-01-15T08:59:20;36.83;;;25.07;;
10461;SDS011;5278;42.656;23.374;2024-01-15T09:01:50;36.90;;;25.20;;
10461;SDS011;5278;42.656;23.374;2024-01-15T09:04:17;35.67;;;23.33;;
10461;SDS011;5278;42.656;23.374;2024-01-15T09:06:44;32.63;;;24.13;;
10461;SDS011;5278;42.656;23.374;2024-01-15T09:09:12;37.87;;;28.00;;
10461;SDS011;5278;42.656;23.374;2024-01-15T09:11:39;47.37;;;33.90;;
10461;SDS011;5278;42.656;23.374;2024-01-15T09:14:08;46.07;;;30.50;;
10461;SDS011;5278;42.656;23.374;2024-01-15T09:16:35;40.57;;;30.07;;
10461;SDS011;5278;42.656;23.374;2024-01-15T09:19:02;44.10;;;30.13;;
10461;SDS011;5278;42.656;23.374;2024-01-15T09:21:30;52.33;;;36.40;;
10461;SDS011;5278;42.656;23.374;2024-01-15T09:23:57;58.50;;;39.30;;
10461;SDS011;5278;42.656;23.374;2024-01-15T09:26:24;56.50;;;41.83;;
10461;SDS011;5278;42.656;23.374;2024-01-15T09:28:51;57.13;;;39.97;;
10461;SDS011;5278;42.656;23.374;2024-01-15T09:31:19;59.33;;;38.20;;
10461;SDS011;5278;42.656;23.374;2024-01-15T09:33:46;52.87;;;37.20;;
10461;SDS011;5278;42.656;23.374;2024-01-15T09:36:13;49.73;;;34.20;;
10461;SDS011;5278;42.656;23.374;2024-01-15T09:38:41;54.10;;;34.13;;
10461;SDS011;5278;42.656;23.374;2024-01-15T09:41:07;54.07;;;32.80;;
10461;SDS011;5278;42.656;23.374;2024-01-15T09:43:35;49.80;;;33.27;;
10461;SDS011;5278;42.656;23.374;2024-01-15T09:46:03;48.73;;;30.50;;
10461;SDS011;5278;42.656;23.374;2024-01-15T09:48:33;43.27;;;29.50;;
10461;SDS011;5278;42.656;23.374;2024-01-15T09:51:01;49.47;;;30.13;;
10461;SDS011;5278;42.656;23.374;2024-01-15T09:53:29;38.00;;;24.83;;
10461;SDS011;5278;42.656;23.374;2024-01-15T09:55:57;46.77;;;24.90;;
10461;SDS011;5278;42.656;23.374;2024-01-15T09:58:24;36.40;;;23.40;;
10461;SDS011;5278;42.656;23.374;2024-01-15T10:00:54;34.63;;;22.70;;
10461;SDS011;5278;42.656;23.374;2024-01-15T10:03:22;30.53;;;18.87;;
10461;SDS011;5278;42.656;23.374;2024-01-15T10:05:51;29.43;;;19.27;;
10461;SDS011;5278;42.656;23.374;2024-01-15T10:08:20;29.87;;;18.87;;
10461;SDS011;5278;42.656;23.374;2024-01-15T10:10:50;31.07;;;18.00;;
10461;SDS011;5278;42.656;23.374;2024-01-15T10:13:16;38.20;;;19.87;;
10461;SDS011;5278;42.656;23.374;2024-01-15T10:15:45;32.57;;;19.60;;
10461;SDS011;5278;42.656;23.374;2024-01-15T10:18:13;32.83;;;20.23;;
10461;SDS011;5278;42.656;23.374;2024-01-15T10:20:43;34.73;;;21.20;;
10461;SDS011;5278;42.656;23.374;2024-01-15T10:23:11;40.30;;;23.83;;
10461;SDS011;5278;42.656;23.374;2024-01-15T10:25:38;34.77;;;20.87;;
10461;SDS011;5278;42.656;23.374;2024-01-15T10:28:05;37.23;;;19.40;;
10461;SDS011;5278;42.656;23.374;2024-01-15T10:30:32;33.33;;;18.80;;
10461;SDS011;5278;42.656;23.374;2024-01-15T10:33:00;29.10;;;18.57;;
10461;SDS011;5278;42.656;23.374;2024-01-15T10:35:29;28.27;;;17.33;;
10461;SDS011;5278;42.656;23.374;2024-01-15T10:37:57;31.43;;;19.50;;
10461;SDS011;5278;42.656;23.374;2024-01-15T10:40:26;38.50;;;21.93;;
10461;SDS011;5278;42.656;23.374;2024-01-15T10:42:53;36.77;;;20.13;;
10461;SDS011;5278;42.656;23.374;2024-01-15T10:45:20;32.07;;;19.47;;
10461;SDS011;5278;42.656;23.374;2024-01-15T10:47:47;32.07;;;19.70;;
10461;SDS011;5278;42.656;23.374;2024-01-15T10:50:14;26.63;;;17.23;;
10461;SDS011;5278;42.656;23.374;2024-01-15T10:52:42;28.27;;;16.77;;
10461;SDS011;5278;42.656;23.374;2024-01-15T10:55:09;39.40;;;18.83;;
10461;SDS011;5278;42.656;23.374;2024-01-15T10:57:38;30.60;;;18.87;;
10461;SDS011;5278;42.656;23.374;2024-01-15T11:00:06;28.60;;;17.30;;
10461;SDS011;5278;42.656;23.374;2024-01-15T11:02:40;35.93;;;19.67;;
10461;SDS011;5278;42.656;23.374;2024-01-15T11:05:10;32.13;;;20.97;;
10461;SDS011;5278;42.656;23.374;2024-01-15T11:07:36;33.03;;;19.60;;
10461;SDS011;5278;42.656;23.374;2024-01-15T11:10:06;31.67;;;20.30;;
10461;SDS011;5278;42.656;23.374;2024-01-15T11:12:35;30.37;;;18.93;;
10461;SDS011;5278;42.656;23.374;2024-01-15T11:15:05;38.80;;;22.90;;
10461;SDS011;5278;42.656;23.374;2024-01-15T11:20:26;33.93;;;22.90;;
10461;SDS011;5278;42.656;23.374;2024-01-15T11:22:52;49.40;;;29.43;;
10461;SDS011;5278;42.656;23.374;2024-01-15T11:25:22;38.77;;;24.57;;
10461;SDS011;5278;42.656;23.374;2024-01-15T11:27:50;39.17;;;24.90;;
10461;SDS011;5278;42.656;23.374;2024-01-15T11:30:24;44.03;;;26.53;;
10461;SDS011;5278;42.656;23.374;2024-01-15T11:32:51;39.27;;;25.70;;
10461;SDS011;5278;42.656;23.374;2024-01-15T11:35:18;41.40;;;26.13;;
10461;SDS011;5278;42.656;23.374;2024-01-15T11:37:57;41.30;;;26.47;;
10461;SDS011;5278;42.656;23.374;2024-01-15T11:43:10;31.67;;;22.27;;
10461;SDS011;5278;42.656;23.374;2024-01-15T11:45:39;40.90;;;25.00;;
10461;SDS011;5278;42.656;23.374;2024-01-15T11:48:11;36.57;;;24.27;;
10461;SDS011;5278;42.656;23.374;2024-01-15T11:50:43;36.67;;;24.17;;
10461;SDS011;5278;42.656;23.374;2024-01-15T11:53:21;39.23;;;23.90;;
10461;SDS011;5278;42.656;23.374;2024-01-15T11:55:59;39.00;;;23.93;;
10461;SDS011;5278;42.656;23.374;2024-01-15T11:58:28;38.20;;;21.90;;
10461;SDS011;5278;42.656;23.374;2024-01-15T12:00:57;38.07;;;23.70;;
10461;SDS011;5278;42.656;23.374;2024-01-15T12:03:24;34.03;;;21.77;;
10461;SDS011;5278;42.656;23.374;2024-01-15T12:05:54;35.30;;;22.47;;
10461;SDS011;5278;42.656;23.374;2024-01-15T12:08:21;32.00;;;20.67;;
10461;SDS011;5278;42.656;23.374;2024-01-15T12:10:48;34.03;;;21.07;;
10461;SDS011;5278;42.656;23.374;2024-01-15T12:13:20;35.23;;;20.77;;
10461;SDS011;5278;42.656;23.374;2024-01-15T12:15:47;36.30;;;22.03;;
10461;SDS011;5278;42.656;23.374;2024-01-15T12:18:17;32.60;;;20.50;;
10461;SDS011;5278;42.656;23.374;2024-01-15T12:20:45;36.87;;;21.70;;
10461;SDS011;5278;42.656;23.374;2024-01-15T12:23:13;36.57;;;22.00;;
10461;SDS011;5278;42.656;23.374;2024-01-15T12:25:41;27.67;;;18.90;;
10461;SDS011;5278;42.656;23.374;2024-01-15T12:28:09;29.87;;;19.20;;
10461;SDS011;5278;42.656;23.374;2024-01-15T12:30:36;31.00;;;18.23;;
10461;SDS011;5278;42.656;23.374;2024-01-15T12:33:03;24.33;;;17.07;;
10461;SDS011;5278;42.656;23.374;2024-01-15T12:35:33;32.43;;;19.53;;
10461;SDS011;5278;42.656;23.374;2024-01-15T12:38:00;30.33;;;18.37;;
10461;SDS011;5278;42.656;23.374;2024-01-15T12:40:28;34.63;;;18.37;;
10461;SDS011;5278;42.656;23.374;2024-01-15T12:42:55;26.33;;;17.83;;
10461;SDS011;5278;42.656;23.374;2024-01-15T12:45:22;53.63;;;28.27;;
10461;SDS011;5278;42.656;23.374;2024-01-15T12:47:50;45.33;;;25.83;;
10461;SDS011;5278;42.656;23.374;2024-01-15T12:50:17;29.87;;;20.27;;
10461;SDS011;5278;42.656;23.374;2024-01-15T12:52:45;26.73;;;18.80;;
10461;SDS011;5278;42.656;23.374;2024-01-15T12:55:13;33.87;;;19.23;;
10461;SDS011;5278;42.656;23.374;2024-01-15T12:57:40;29.60;;;18.13;;
10461;SDS011;5278;42.656;23.374;2024-01-15T13:00:07;29.23;;;18.70;;
10461;SDS011;5278;42.656;23.374;2024-01-15T13:02:37;38.23;;;22.23;;
10461;SDS011;5278;42.656;23.374;2024-01-15T13:05:04;35.57;;;21.00;;
10461;SDS011;5278;42.656;23.374;2024-01-15T13:07:32;31.80;;;19.37;;
10461;SDS011;5278;42.656;23.374;2024-01-15T13:10:00;32.23;;;17.83;;
10461;SDS011;5278;42.656;23.374;2024-01-15T13:12:27;31.93;;;18.33;;
10461;SDS011;5278;42.656;23.374;2024-01-15T13:14:54;37.17;;;19.37;;
10461;SDS011;5278;42.656;23.374;2024-01-15T13:17:21;31.40;;;18.97;;
10461;SDS011;5278;42.656;23.374;2024-01-15T13:19:49;30.57;;;17.97;;
10461;SDS011;5278;42.656;23.374;2024-01-15T13:22:17;30.83;;;16.70;;
10461;SDS011;5278;42.656;23.374;2024-01-15T13:24:43;32.10;;;17.23;;
10461;SDS011;5278;42.656;23.374;2024-01-15T13:27:12;25.50;;;16.90;;
10461;SDS011;5278;42.656;23.374;2024-01-15T13:29:39;25.23;;;16.07;;
10461;SDS011;5278;42.656;23.374;2024-01-15T13:32:06;27.07;;;17.57;;
10461;SDS011;5278;42.656;23.374;2024-01-15T13:34:35;30.73;;;17.80;;
10461;SDS011;5278;42.656;23.374;2024-01-15T13:37:03;27.90;;;17.13;;
10461;SDS011;5278;42.656;23.374;2024-01-15T13:39:30;31.37;;;17.77;;
10461;SDS011;5278;42.656;23.374;2024-01-15T13:41:58;27.37;;;17.27;;
10461;SDS011;5278;42.656;23.374;2024-01-15T13:44:27;28.40;;;17.47;;
10461;SDS011;5278;42.656;23.374;2024-01-15T13:46:54;32.13;;;18.07;;
10461;SDS011;5278;42.656;23.374;2024-01-15T13:49:22;27.93;;;18.60;;
10461;SDS011;5278;42.656;23.374;2024-01-15T13:51:49;29.17;;;18.43;;
10461;SDS011;5278;42.656;23.374;2024-01-15T13:54:17;32.43;;;19.77;;
10461;SDS011;5278;42.656;23.374;2024-01-15T13:56:45;29.47;;;18.07;;
10461;SDS011;5278;42.656;23.374;2024-01-15T13:59:12;34.03;;;20.50;;
10461;SDS011;5278;42.656;23.374;2024-01-15T14:01:41;31.07;;;18.40;;
10461;SDS011;5278;42.656;23.374;2024-01-15T14:04:11;29.53;;;18.90;;
10461;SDS011;5278;42.656;23.374;2024-01-15T14:06:38;32.57;;;19.03;;
10461;SDS011;5278;42.656;23.374;2024-01-15T14:09:08;32.07;;;19.93;;
10461;SDS011;5278;42.656;23.374;2024-01-15T14:11:35;45.17;;;20.83;;
10461;SDS011;5278;42.656;23.374;2024-01-15T14:14:02;35.97;;;19.77;;
10461;SDS011;5278;42.656;23.374;2024-01-15T14:16:29;31.80;;;18.70;;
10461;SDS011;5278;42.656;23.374;2024-01-15T14:18:58;31.47;;;19.00;;
10461;SDS011;5278;42.656;23.374;2024-01-15T14:21:25;31.63;;;19.00;;
10461;SDS011;5278;42.656;23.374;2024-01-15T14:23:51;34.80;;;18.67;;
10461;SDS011;5278;42.656;23.374;2024-01-15T14:26:18;30.03;;;18.60;;
10461;SDS011;5278;42.656;23.374;2024-01-15T14:28:45;34.83;;;19.80;;